sensor_id;sensor_type;location;lat;lon;timestamp;P1;durP1;ratioP1;P2;durP2;ratioP2
8040;SDS011;4063;48.140;10.250;2024-03-02T00:00:20;0.30;;;0.30;;
8040;SDS011;4063;48.140;10.250;2024-03-02T00:02:47;0.20;;;0.20;;
8040;SDS011;4063;48.140;10.250;2024-03-02T00:05:14;0.30;;;0.30;;
8040;SDS011;4063;48.140;10.250;2024-03-02T00:07:41;0.27;;;0.27;;
8040;SDS011;4063;48.140;10.250;2024-03-02T00:10:10;0.30;;;0.30;;
8040;SDS011;4063;48.140;10.250;2024-03-02T00:12:40;0.30;;;0.30;;
8040;SDS011;4063;48.140;10.250;2024-03-02T00:15:07;0.40;;;0.40;;
8040;SDS011;4063;48.140;10.250;2024-03-02T00:17:45;0.30;;;0.30;;
8040;SDS011;4063;48.140;10.250;2024-03-02T00:20:11;0.30;;;0.30;;
8040;SDS011;4063;48.140;10.250;2024-03-02T00:22:42;0.30;;;0.30;;
8040;SDS011;4063;48.140;10.250;2024-03-02T00:25:08;0.30;;;0.30;;
8040;SDS011;4063;48.140;10.250;2024-03-02T00:27:35;0.30;;;0.30;;
8040;SDS011;4063;48.140;10.250;2024-03-02T00:30:01;0.20;;;0.20;;
8040;SDS011;4063;48.140;10.250;2024-03-02T00:32:31;0.20;;;0.20;;
8040;SDS011;4063;48.140;10.250;2024-03-02T00:34:58;0.40;;;0.40;;
8040;SDS011;4063;48.140;10.250;2024-03-02T00:37:25;0.30;;;0.30;;
8040;SDS011;4063;48.140;10.250;2024-03-02T00:39:53;0.40;;;0.40;;
8040;SDS011;4063;48.140;10.250;2024-03-02T00:42:19;0.30;;;0.30;;
8040;SDS011;4063;48.140;10.250;2024-03-02T00:44:45;0.23;;;0.23;;
8040;SDS011;4063;48.140;10.250;2024-03-02T00:47:12;0.30;;;0.30;;
8040;SDS011;4063;48.140;10.250;2024-03-02T00:49:38;0.30;;;0.30;;
8040;SDS011;4063;48.140;10.250;2024-03-02T00:52:04;0.30;;;0.30;;
8040;SDS011;4063;48.140;10.250;2024-03-02T00:54:33;0.30;;;0.30;;
8040;SDS011;4063;48.140;10.250;2024-03-02T00:56:59;0.30;;;0.30;;
8040;SDS011;4063;48.140;10.250;2024-03-02T00:59:25;0.20;;;0.20;;
8040;SDS011;4063;48.140;10.250;2024-03-02T01:01:51;0.30;;;0.30;;
8040;SDS011;4063;48.140;10.250;2024-03-02T01:04:17;0.30;;;0.30;;
8040;SDS011;4063;48.140;10.250;2024-03-02T01:06:43;0.30;;;0.30;;
8040;SDS011;4063;48.140;10.250;2024-03-02T01:09:09;0.30;;;0.30;;
8040;SDS011;4063;48.140;10.250;2024-03-02T01:11:37;0.30;;;0.30;;
8040;SDS011;4063;48.140;10.250;2024-03-02T01:14:03;0.20;;;0.20;;
8040;SDS011;4063;48.140;10.250;2024-03-02T01:16:29;0.30;;;0.30;;
8040;SDS011;4063;48.140;10.250;2024-03-02T01:18:55;0.30;;;0.30;;
8040;SDS011;4063;48.140;10.250;2024-03-02T01:21:21;0.30;;;0.30;;
8040;SDS011;4063;48.140;10.250;2024-03-02T01:23:47;0.30;;;0.30;;
8040;SDS011;4063;48.140;10.250;2024-03-02T01:26:13;0.30;;;0.30;;
8040;SDS011;4063;48.140;10.250;2024-03-02T01:28:40;0.40;;;0.40;;
8040;SDS011;4063;48.140;10.250;2024-03-02T01:31:06;0.30;;;0.30;;
8040;SDS011;4063;48.140;10.250;2024-03-02T01:33:32;0.20;;;0.20;;
8040;SDS011;4063;48.140;10.250;2024-03-02T01:35:58;0.20;;;0.20;;
8040;SDS011;4063;48.140;10.250;2024-03-02T01:38:24;0.30;;;0.30;;
8040;SDS011;4063;48.140;10.250;2024-03-02T01:40:49;0.30;;;0.30;;
8040;SDS011;4063;48.140;10.250;2024-03-02T01:43:16;0.30;;;0.30;;
8040;SDS011;4063;48.140;10.250;2024-03-02T01:45:43;0.20;;;0.20;;
8040;SDS011;4063;48.140;10.250;2024-03-02T01:48:09;0.20;;;0.20;;
8040;SDS011;4063;48.140;10.250;2024-03-02T01:50:35;0.30;;;0.30;;
8040;SDS011;4063;48.140;10.250;2024-03-02T01:53:01;0.27;;;0.27;;
8040;SDS011;4063;48.140;10.250;2024-03-02T01:55:28;0.20;;;0.20;;
8040;SDS011;4063;48.140;10.250;2024-03-02T01:57:58;0.30;;;0.30;;
8040;SDS011;4063;48.140;10.250;2024-03-02T02:00:24;0.30;;;0.30;;
8040;SDS011;4063;48.140;10.250;2024-03-02T02:02:51;0.30;;;0.30;;
8040;SDS011;4063;48.140;10.250;2024-03-02T02:05:17;0.30;;;0.30;;
8040;SDS011;4063;48.140;10.250;2024-03-02T02:07:43;0.30;;;0.30;;
8040;SDS011;4063;48.140;10.250;2024-03-02T02:10:10;0.30;;;0.30;;
8040;SDS011;4063;48.140;10.250;2024-03-02T02:12:36;0.30;;;0.30;;
8040;SDS011;4063;48.140;10.250;2024-03-02T02:15:02;0.40;;;0.40;;
8040;SDS011;4063;48.140;10.250;2024-03-02T02:17:31;0.40;;;0.40;;
8040;SDS011;4063;48.140;10.250;2024-03-02T02:19:57;0.20;;;0.20;;
8040;SDS011;4063;48.140;10.250;2024-03-02T02:22:23;0.40;;;0.40;;
8040;SDS011;4063;48.140;10.250;2024-03-02T02:24:49;0.30;;;0.30;;
8040;SDS011;4063;48.140;10.250;2024-03-02T02:27:15;0.30;;;0.30;;
8040;SDS011;4063;48.140;10.250;2024-03-02T02:29:41;0.30;;;0.30;;
8040;SDS011;4063;48.140;10.250;2024-03-02T02:32:07;0.20;;;0.20;;
8040;SDS011;4063;48.140;10.250;2024-03-02T02:34:33;0.30;;;0.30;;
8040;SDS011;4063;48.140;10.250;2024-03-02T02:37:03;0.30;;;0.30;;
8040;SDS011;4063;48.140;10.250;2024-03-02T02:39:31;0.27;;;0.27;;
8040;SDS011;4063;48.140;10.250;2024-03-02T02:41:57;0.30;;;0.30;;
8040;SDS011;4063;48.140;10.250;2024-03-02T02:44:26;0.40;;;0.40;;
8040;SDS011;4063;48.140;10.250;2024-03-02T02:46:53;0.30;;;0.30;;
8040;SDS011;4063;48.140;10.250;2024-03-02T02:49:22;0.30;;;0.30;;
8040;SDS011;4063;48.140;10.250;2024-03-02T02:51:47;0.30;;;0.30;;
8040;SDS011;4063;48.140;10.250;2024-03-02T02:54:16;0.40;;;0.40;;
8040;SDS011;4063;48.140;10.250;2024-03-02T02:56:42;0.30;;;0.30;;
8040;SDS011;4063;48.140;10.250;2024-03-02T02:59:08;0.30;;;0.30;;
8040;SDS011;4063;48.140;10.250;2024-03-02T03:01:34;0.40;;;0.40;;
8040;SDS011;4063;48.140;10.250;2024-03-02T03:04:00;0.33;;;0.33;;
8040;SDS011;4063;48.140;10.250;2024-03-02T03:06:26;0.33;;;0.33;;
8040;SDS011;4063;48.140;10.250;2024-03-02T03:08:51;0.30;;;0.30;;
8040;SDS011;4063;48.140;10.250;2024-03-02T03:11:17;0.20;;;0.20;;
8040;SDS011;4063;48.140;10.250;2024-03-02T03:13:46;0.30;;;0.30;;
8040;SDS011;4063;48.140;10.250;2024-03-02T03:16:12;0.27;;;0.27;;
8040;SDS011;4063;48.140;10.250;2024-03-02T03:18:38;0.27;;;0.27;;
8040;SDS011;4063;48.140;10.250;2024-03-02T03:21:03;0.30;;;0.30;;
8040;SDS011;4063;48.140;10.250;2024-03-02T03:23:29;0.30;;;0.30;;
8040;SDS011;4063;48.140;10.250;2024-03-02T03:25:55;0.30;;;0.30;;
8040;SDS011;4063;48.140;10.250;2024-03-02T03:28:21;0.30;;;0.30;;
8040;SDS011;4063;48.140;10.250;2024-03-02T03:30:47;0.30;;;0.30;;
8040;SDS011;4063;48.140;10.250;2024-03-02T03:33:13;0.30;;;0.30;;
8040;SDS011;4063;48.140;10.250;2024-03-02T03:35:39;0.20;;;0.20;;
8040;SDS011;4063;48.140;10.250;2024-03-02T03:38:07;0.30;;;0.30;;
8040;SDS011;4063;48.140;10.250;2024-03-02T03:40:33;0.40;;;0.40;;
8040;SDS011;4063;48.140;10.250;2024-03-02T03:42:59;0.30;;;0.30;;
8040;SDS011;4063;48.140;10.250;2024-03-02T03:45:25;0.30;;;0.30;;
8040;SDS011;4063;48.140;10.250;2024-03-02T03:47:51;0.30;;;0.30;;
8040;SDS011;4063;48.140;10.250;2024-03-02T03:50:18;0.30;;;0.30;;
8040;SDS011;4063;48.140;10.250;2024-03-02T03:52:44;0.30;;;0.30;;
8040;SDS011;4063;48.140;10.250;2024-03-02T03:55:10;0.30;;;0.30;;
8040;SDS011;4063;48.140;10.250;2024-03-02T03:57:37;0.30;;;0.30;;
8040;SDS011;4063;48.140;10.250;2024-03-02T04:00:03;0.20;;;0.20;;
8040;SDS011;4063;48.140;10.250;2024-03-02T04:02:29;0.33;;;0.33;;
8040;SDS011;4063;48.140;10.250;2024-03-02T04:04:55;0.30;;;0.30;;
8040;SDS011;4063;48.140;10.250;2024-03-02T04:07:21;0.30;;;0.30;;
8040;SDS011;4063;48.140;10.250;2024-03-02T04:09:47;0.30;;;0.30;;
8040;SDS011;4063;48.140;10.250;2024-03-02T04:12:13;0.20;;;0.20;;
8040;SDS011;4063;48.140;10.250;2024-03-02T04:14:39;0.40;;;0.40;;
8040;SDS011;4063;48.140;10.250;2024-03-02T04:17:07;0.20;;;0.20;;
8040;SDS011;4063;48.140;10.250;2024-03-02T04:19:33;0.30;;;0.30;;
8040;SDS011;4063;48.140;10.250;2024-03-02T04:21:59;0.30;;;0.30;;
8040;SDS011;4063;48.140;10.250;2024-03-02T04:24:29;0.30;;;0.30;;
8040;SDS011;4063;48.140;10.250;2024-03-02T04:26:55;0.30;;;0.30;;
8040;SDS011;4063;48.140;10.250;2024-03-02T04:29:22;0.30;;;0.30;;
8040;SDS011;4063;48.140;10.250;2024-03-02T04:31:49;0.30;;;0.30;;
8040;SDS011;4063;48.140;10.250;2024-03-02T04:34:15;0.30;;;0.30;;
8040;SDS011;4063;48.140;10.250;2024-03-02T04:36:43;0.37;;;0.37;;
8040;SDS011;4063;48.140;10.250;2024-03-02T04:39:09;0.20;;;0.20;;
8040;SDS011;4063;48.140;10.250;2024-03-02T04:41:35;0.40;;;0.40;;
8040;SDS011;4063;48.140;10.250;2024-03-02T04:44:01;0.30;;;0.30;;
8040;SDS011;4063;48.140;10.250;2024-03-02T04:46:27;0.30;;;0.30;;
8040;SDS011;4063;48.140;10.250;2024-03-02T04:48:53;0.20;;;0.20;;
8040;SDS011;4063;48.140;10.250;2024-03-02T04:51:23;0.20;;;0.20;;
8040;SDS011;4063;48.140;10.250;2024-03-02T04:53:49;0.30;;;0.30;;
8040;SDS011;4063;48.140;10.250;2024-03-02T04:56:15;0.30;;;0.30;;
8040;SDS011;4063;48.140;10.250;2024-03-02T04:58:56;0.47;;;0.47;;
8040;SDS011;4063;48.140;10.250;2024-03-02T05:01:22;0.30;;;0.30;;
8040;SDS011;4063;48.140;10.250;2024-03-02T05:03:50;0.30;;;0.30;;
8040;SDS011;4063;48.140;10.250;2024-03-02T05:06:16;0.30;;;0.30;;
8040;SDS011;4063;48.140;10.250;2024-03-02T05:08:42;0.30;;;0.30;;
8040;SDS011;4063;48.140;10.250;2024-03-02T05:11:09;0.30;;;0.30;;
8040;SDS011;4063;48.140;10.250;2024-03-02T05:14:06;0.30;;;0.30;;
8040;SDS011;4063;48.140;10.250;2024-03-02T05:16:33;0.30;;;0.30;;
8040;SDS011;4063;48.140;10.250;2024-03-02T05:19:05;0.33;;;0.33;;
8040;SDS011;4063;48.140;10.250;2024-03-02T05:21:34;0.20;;;0.20;;
8040;SDS011;4063;48.140;10.250;2024-03-02T05:24:00;0.30;;;0.30;;
8040;SDS011;4063;48.140;10.250;2024-03-02T05:26:26;0.30;;;0.30;;
8040;SDS011;4063;48.140;10.250;2024-03-02T05:28:51;0.80;;;0.80;;
8040;SDS011;4063;48.140;10.250;2024-03-02T05:31:18;0.30;;;0.30;;
8040;SDS011;4063;48.140;10.250;2024-03-02T05:33:44;0.90;;;0.90;;
8040;SDS011;4063;48.140;10.250;2024-03-02T05:36:10;0.30;;;0.30;;
8040;SDS011;4063;48.140;10.250;2024-03-02T05:38:36;0.30;;;0.30;;
8040;SDS011;4063;48.140;10.250;2024-03-02T05:41:02;1.90;;;1.80;;
8040;SDS011;4063;48.140;10.250;2024-03-02T05:43:28;0.40;;;0.40;;
8040;SDS011;4063;48.140;10.250;2024-03-02T05:45:54;0.30;;;0.30;;
8040;SDS011;4063;48.140;10.250;2024-03-02T05:48:20;0.50;;;0.50;;
8040;SDS011;4063;48.140;10.250;2024-03-02T05:50:46;0.30;;;0.30;;
8040;SDS011;4063;48.140;10.250;2024-03-02T05:53:12;0.40;;;0.40;;
8040;SDS011;4063;48.140;10.250;2024-03-02T05:55:40;0.30;;;0.30;;
8040;SDS011;4063;48.140;10.250;2024-03-02T05:58:06;0.30;;;0.30;;
8040;SDS011;4063;48.140;10.250;2024-03-02T06:00:41;0.30;;;0.30;;
8040;SDS011;4063;48.140;10.250;2024-03-02T06:03:07;0.40;;;0.40;;
8040;SDS011;4063;48.140;10.250;2024-03-02T06:05:34;0.30;;;0.30;;
8040;SDS011;4063;48.140;10.250;2024-03-02T06:08:03;0.40;;;0.40;;
8040;SDS011;4063;48.140;10.250;2024-03-02T06:10:29;0.30;;;0.30;;
8040;SDS011;4063;48.140;10.250;2024-03-02T06:12:55;0.30;;;0.30;;
8040;SDS011;4063;48.140;10.250;2024-03-02T06:15:21;0.40;;;0.40;;
8040;SDS011;4063;48.140;10.250;2024-03-02T06:17:47;0.30;;;0.30;;
8040;SDS011;4063;48.140;10.250;2024-03-02T06:20:13;0.30;;;0.30;;
8040;SDS011;4063;48.140;10.250;2024-03-02T06:22:39;0.30;;;0.30;;
8040;SDS011;4063;48.140;10.250;2024-03-02T06:25:05;0.30;;;0.30;;
8040;SDS011;4063;48.140;10.250;2024-03-02T06:27:31;0.27;;;0.27;;
8040;SDS011;4063;48.140;10.250;2024-03-02T06:29:58;0.40;;;0.40;;
8040;SDS011;4063;48.140;10.250;2024-03-02T06:32:24;0.30;;;0.30;;
8040;SDS011;4063;48.140;10.250;2024-03-02T06:34:50;0.30;;;0.30;;
8040;SDS011;4063;48.140;10.250;2024-03-02T06:37:16;0.47;;;0.47;;
8040;SDS011;4063;48.140;10.250;2024-03-02T06:39:43;0.30;;;0.30;;
8040;SDS011;4063;48.140;10.250;2024-03-02T06:42:09;0.47;;;0.47;;
8040;SDS011;4063;48.140;10.250;2024-03-02T06:44:35;0.30;;;0.30;;
8040;SDS011;4063;48.140;10.250;2024-03-02T06:47:01;0.30;;;0.30;;
8040;SDS011;4063;48.140;10.250;2024-03-02T06:49:27;0.40;;;0.40;;
8040;SDS011;4063;48.140;10.250;2024-03-02T06:51:53;0.30;;;0.30;;
8040;SDS011;4063;48.140;10.250;2024-03-02T06:54:19;0.30;;;0.30;;
8040;SDS011;4063;48.140;10.250;2024-03-02T06:56:46;0.23;;;0.23;;
8040;SDS011;4063;48.140;10.250;2024-03-02T06:59:13;0.30;;;0.30;;
8040;SDS011;4063;48.140;10.250;2024-03-02T07:01:39;0.33;;;0.33;;
8040;SDS011;4063;48.140;10.250;2024-03-02T07:04:05;0.40;;;0.40;;
8040;SDS011;4063;48.140;10.250;2024-03-02T07:06:31;0.30;;;0.30;;
8040;SDS011;4063;48.140;10.250;2024-03-02T07:08:57;0.30;;;0.30;;
8040;SDS011;4063;48.140;10.250;2024-03-02T07:11:23;0.20;;;0.20;;
8040;SDS011;4063;48.140;10.250;2024-03-02T07:13:50;0.30;;;0.30;;
8040;SDS011;4063;48.140;10.250;2024-03-02T07:16:16;0.30;;;0.30;;
8040;SDS011;4063;48.140;10.250;2024-03-02T07:18:57;0.30;;;0.30;;
8040;SDS011;4063;48.140;10.250;2024-03-02T07:21:26;0.30;;;0.30;;
8040;SDS011;4063;48.140;10.250;2024-03-02T07:23:52;0.20;;;0.20;;
8040;SDS011;4063;48.140;10.250;2024-03-02T07:26:18;0.33;;;0.33;;
8040;SDS011;4063;48.140;10.250;2024-03-02T07:28:45;0.20;;;0.20;;
8040;SDS011;4063;48.140;10.250;2024-03-02T07:31:11;0.30;;;0.30;;
8040;SDS011;4063;48.140;10.250;2024-03-02T07:33:37;0.30;;;0.30;;
8040;SDS011;4063;48.140;10.250;2024-03-02T07:36:03;0.40;;;0.40;;
8040;SDS011;4063;48.140;10.250;2024-03-02T07:38:29;0.20;;;0.20;;
8040;SDS011;4063;48.140;10.250;2024-03-02T07:40:55;0.20;;;0.20;;
8040;SDS011;4063;48.140;10.250;2024-03-02T07:43:21;0.27;;;0.27;;
8040;SDS011;4063;48.140;10.250;2024-03-02T07:45:47;0.20;;;0.20;;
8040;SDS011;4063;48.140;10.250;2024-03-02T07:48:14;1.30;;;1.30;;
8040;SDS011;4063;48.140;10.250;2024-03-02T07:50:40;0.27;;;0.27;;
8040;SDS011;4063;48.140;10.250;2024-03-02T07:53:08;0.30;;;0.30;;
8040;SDS011;4063;48.140;10.250;2024-03-02T07:55:34;0.20;;;0.20;;
8040;SDS011;4063;48.140;10.250;2024-03-02T07:58:00;0.30;;;0.30;;
8040;SDS011;4063;48.140;10.250;2024-03-02T08:00:26;0.50;;;0.50;;
8040;SDS011;4063;48.140;10.250;2024-03-02T08:02:53;0.20;;;0.20;;
8040;SDS011;4063;48.140;10.250;2024-03-02T08:05:19;0.30;;;0.30;;
8040;SDS011;4063;48.140;10.250;2024-03-02T08:07:45;0.40;;;0.40;;
8040;SDS011;4063;48.140;10.250;2024-03-02T08:10:12;0.20;;;0.20;;
8040;SDS011;4063;48.140;10.250;2024-03-02T08:12:38;0.20;;;0.20;;
8040;SDS011;4063;48.140;10.250;2024-03-02T08:15:04;0.20;;;0.20;;
8040;SDS011;4063;48.140;10.250;2024-03-02T08:17:30;0.20;;;0.20;;
8040;SDS011;4063;48.140;10.250;2024-03-02T08:19:56;1.33;;;1.33;;
8040;SDS011;4063;48.140;10.250;2024-03-02T08:22:23;0.43;;;0.43;;
8040;SDS011;4063;48.140;10.250;2024-03-02T08:24:51;0.20;;;0.20;;
8040;SDS011;4063;48.140;10.250;2024-03-02T08:27:17;0.20;;;0.20;;
8040;SDS011;4063;48.140;10.250;2024-03-02T08:29:43;0.20;;;0.20;;
8040;SDS011;4063;48.140;10.250;2024-03-02T08:32:09;1.33;;;1.27;;
8040;SDS011;4063;48.140;10.250;2024-03-02T08:34:35;0.20;;;0.20;;
8040;SDS011;4063;48.140;10.250;2024-03-02T08:37:04;0.30;;;0.30;;
8040;SDS011;4063;48.140;10.250;2024-03-02T08:39:30;0.20;;;0.20;;
8040;SDS011;4063;48.140;10.250;2024-03-02T08:41:56;0.20;;;0.20;;
8040;SDS011;4063;48.140;10.250;2024-03-02T08:44:22;0.20;;;0.20;;
8040;SDS011;4063;48.140;10.250;2024-03-02T08:46:48;0.30;;;0.30;;
8040;SDS011;4063;48.140;10.250;2024-03-02T08:49:14;0.20;;;0.20;;
8040;SDS011;4063;48.140;10.250;2024-03-02T08:51:40;0.37;;;0.37;;
8040;SDS011;4063;48.140;10.250;2024-03-02T08:54:06;0.30;;;0.30;;
8040;SDS011;4063;48.140;10.250;2024-03-02T08:56:32;0.20;;;0.20;;
8040;SDS011;4063;48.140;10.250;2024-03-02T08:58:58;2.33;;;2.20;;
8040;SDS011;4063;48.140;10.250;2024-03-02T09:01:24;0.20;;;0.20;;
8040;SDS011;4063;48.140;10.250;2024-03-02T09:03:50;0.20;;;0.20;;
8040;SDS011;4063;48.140;10.250;2024-03-02T09:06:16;0.20;;;0.20;;
8040;SDS011;4063;48.140;10.250;2024-03-02T09:08:42;0.20;;;0.20;;
8040;SDS011;4063;48.140;10.250;2024-03-02T09:11:08;0.13;;;0.13;;
8040;SDS011;4063;48.140;10.250;2024-03-02T09:13:35;0.20;;;0.20;;
8040;SDS011;4063;48.140;10.250;2024-03-02T09:16:02;0.20;;;0.20;;
8040;SDS011;4063;48.140;10.250;2024-03-02T09:18:29;0.20;;;0.20;;
8040;SDS011;4063;48.140;10.250;2024-03-02T09:20:54;0.23;;;0.23;;
8040;SDS011;4063;48.140;10.250;2024-03-02T09:23:20;0.30;;;0.30;;
8040;SDS011;4063;48.140;10.250;2024-03-02T09:25:47;0.20;;;0.20;;
8040;SDS011;4063;48.140;10.250;2024-03-02T09:28:13;0.20;;;0.20;;
8040;SDS011;4063;48.140;10.250;2024-03-02T09:30:39;0.90;;;0.90;;
8040;SDS011;4063;48.140;10.250;2024-03-02T09:33:05;0.20;;;0.20;;
8040;SDS011;4063;48.140;10.250;2024-03-02T09:35:31;0.20;;;0.20;;
8040;SDS011;4063;48.140;10.250;2024-03-02T09:37:57;0.20;;;0.20;;
8040;SDS011;4063;48.140;10.250;2024-03-02T09:40:23;0.20;;;0.20;;
8040;SDS011;4063;48.140;10.250;2024-03-02T09:42:50;0.20;;;0.20;;
8040;SDS011;4063;48.140;10.250;2024-03-02T09:45:22;0.20;;;0.20;;
8040;SDS011;4063;48.140;10.250;2024-03-02T09:47:48;0.20;;;0.20;;
8040;SDS011;4063;48.140;10.250;2024-03-02T09:50:14;0.20;;;0.20;;
8040;SDS011;4063;48.140;10.250;2024-03-02T09:52:42;0.20;;;0.20;;
8040;SDS011;4063;48.140;10.250;2024-03-02T09:55:08;0.20;;;0.20;;
8040;SDS011;4063;48.140;10.250;2024-03-02T09:57:34;0.20;;;0.20;;
8040;SDS011;4063;48.140;10.250;2024-03-02T10:00:00;0.20;;;0.20;;
8040;SDS011;4063;48.140;10.250;2024-03-02T10:02:27;0.20;;;0.20;;
8040;SDS011;4063;48.140;10.250;2024-03-02T10:04:53;0.20;;;0.20;;
8040;SDS011;4063;48.140;10.250;2024-03-02T10:07:19;0.20;;;0.20;;
8040;SDS011;4063;48.140;10.250;2024-03-02T10:09:46;0.20;;;0.20;;
8040;SDS011;4063;48.140;10.250;2024-03-02T10:12:12;0.20;;;0.20;;
8040;SDS011;4063;48.140;10.250;2024-03-02T10:14:39;0.20;;;0.20;;
8040;SDS011;4063;48.140;10.250;2024-03-02T10:17:08;0.20;;;0.20;;
8040;SDS011;4063;48.140;10.250;2024-03-02T10:19:35;0.50;;;0.50;;
8040;SDS011;4063;48.140;10.250;2024-03-02T10:22:02;0.20;;;0.20;;
8040;SDS011;4063;48.140;10.250;2024-03-02T10:24:34;0.20;;;0.20;;
8040;SDS011;4063;48.140;10.250;2024-03-02T10:27:02;0.20;;;0.20;;
8040;SDS011;4063;48.140;10.250;2024-03-02T10:29:29;0.10;;;0.10;;
8040;SDS011;4063;48.140;10.250;2024-03-02T10:31:55;0.10;;;0.10;;
8040;SDS011;4063;48.140;10.250;2024-03-02T10:34:24;0.30;;;0.30;;
8040;SDS011;4063;48.140;10.250;2024-03-02T10:36:50;0.20;;;0.20;;
8040;SDS011;4063;48.140;10.250;2024-03-02T10:39:16;0.10;;;0.10;;
8040;SDS011;4063;48.140;10.250;2024-03-02T10:41:42;0.20;;;0.20;;
8040;SDS011;4063;48.140;10.250;2024-03-02T10:44:12;0.20;;;0.20;;
8040;SDS011;4063;48.140;10.250;2024-03-02T10:46:38;0.20;;;0.20;;
8040;SDS011;4063;48.140;10.250;2024-03-02T10:49:05;0.20;;;0.20;;
8040;SDS011;4063;48.140;10.250;2024-03-02T10:51:32;0.10;;;0.10;;
8040;SDS011;4063;48.140;10.250;2024-03-02T10:53:58;0.10;;;0.10;;
8040;SDS011;4063;48.140;10.250;2024-03-02T10:56:29;0.20;;;0.20;;
8040;SDS011;4063;48.140;10.250;2024-03-02T10:59:12;0.10;;;0.10;;
8040;SDS011;4063;48.140;10.250;2024-03-02T11:01:41;0.10;;;0.10;;
8040;SDS011;4063;48.140;10.250;2024-03-02T11:04:08;0.10;;;0.10;;
8040;SDS011;4063;48.140;10.250;2024-03-02T11:06:35;0.10;;;0.10;;
8040;SDS011;4063;48.140;10.250;2024-03-02T11:09:05;0.20;;;0.20;;
8040;SDS011;4063;48.140;10.250;2024-03-02T11:11:36;0.10;;;0.10;;
8040;SDS011;4063;48.140;10.250;2024-03-02T11:14:04;0.10;;;0.10;;
8040;SDS011;4063;48.140;10.250;2024-03-02T11:16:36;0.13;;;0.13;;
8040;SDS011;4063;48.140;10.250;2024-03-02T11:19:06;0.10;;;0.10;;
8040;SDS011;4063;48.140;10.250;2024-03-02T11:21:34;0.15;;;0.15;;
8040;SDS011;4063;48.140;10.250;2024-03-02T11:24:00;0.10;;;0.10;;
8040;SDS011;4063;48.140;10.250;2024-03-02T11:26:27;0.10;;;0.10;;
8040;SDS011;4063;48.140;10.250;2024-03-02T11:28:53;0.40;;;0.40;;
8040;SDS011;4063;48.140;10.250;2024-03-02T11:31:21;0.10;;;0.10;;
8040;SDS011;4063;48.140;10.250;2024-03-02T11:33:47;0.17;;;0.17;;
8040;SDS011;4063;48.140;10.250;2024-03-02T11:36:14;0.17;;;0.17;;
8040;SDS011;4063;48.140;10.250;2024-03-02T11:38:43;0.20;;;0.20;;
8040;SDS011;4063;48.140;10.250;2024-03-02T11:41:11;0.20;;;0.20;;
8040;SDS011;4063;48.140;10.250;2024-03-02T11:43:37;0.10;;;0.10;;
8040;SDS011;4063;48.140;10.250;2024-03-02T11:46:04;0.20;;;0.20;;
8040;SDS011;4063;48.140;10.250;2024-03-02T11:48:38;0.20;;;0.20;;
8040;SDS011;4063;48.140;10.250;2024-03-02T11:51:05;0.20;;;0.20;;
8040;SDS011;4063;48.140;10.250;2024-03-02T11:53:31;0.20;;;0.20;;
8040;SDS011;4063;48.140;10.250;2024-03-02T11:55:58;0.20;;;0.20;;
8040;SDS011;4063;48.140;10.250;2024-03-02T11:58:24;0.20;;;0.20;;
8040;SDS011;4063;48.140;10.250;2024-03-02T12:00:52;0.20;;;0.20;;
8040;SDS011;4063;48.140;10.250;2024-03-02T12:03:18;0.20;;;0.20;;
8040;SDS011;4063;48.140;10.250;2024-03-02T12:05:47;0.10;;;0.10;;
8040;SDS011;4063;48.140;10.250;2024-03-02T12:08:14;0.20;;;0.20;;
8040;SDS011;4063;48.140;10.250;2024-03-02T12:10:40;0.20;;;0.20;;
8040;SDS011;4063;48.140;10.250;2024-03-02T12:13:06;0.20;;;0.20;;
8040;SDS011;4063;48.140;10.250;2024-03-02T12:15:35;0.20;;;0.20;;
8040;SDS011;4063;48.140;10.250;2024-03-02T12:18:04;0.20;;;0.20;;
8040;SDS011;4063;48.140;10.250;2024-03-02T12:20:30;0.10;;;0.10;;
8040;SDS011;4063;48.140;10.250;2024-03-02T12:23:00;0.20;;;0.20;;
8040;SDS011;4063;48.140;10.250;2024-03-02T12:25:27;0.10;;;0.10;;
8040;SDS011;4063;48.140;10.250;2024-03-02T12:27:54;0.20;;;0.20;;
8040;SDS011;4063;48.140;10.250;2024-03-02T12:30:20;0.30;;;0.30;;
8040;SDS011;4063;48.140;10.250;2024-03-02T12:32:46;0.73;;;0.35;;
8040;SDS011;4063;48.140;10.250;2024-03-02T12:35:13;0.20;;;0.20;;
8040;SDS011;4063;48.140;10.250;2024-03-02T12:37:45;2.80;;;1.90;;
8040;SDS011;4063;48.140;10.250;2024-03-02T12:40:12;2.08;;;1.90;;
8040;SDS011;4063;48.140;10.250;2024-03-02T12:42:39;2.05;;;1.58;;
8040;SDS011;4063;48.140;10.250;2024-03-02T12:45:08;2.37;;;1.73;;
8040;SDS011;4063;48.140;10.250;2024-03-02T12:47:34;3.20;;;2.00;;
8040;SDS011;4063;48.140;10.250;2024-03-02T12:50:01;3.27;;;2.40;;
8040;SDS011;4063;48.140;10.250;2024-03-02T12:52:27;2.50;;;2.30;;
8040;SDS011;4063;48.140;10.250;2024-03-02T12:54:54;2.67;;;2.45;;
8040;SDS011;4063;48.140;10.250;2024-03-02T12:57:26;2.97;;;2.20;;
8040;SDS011;4063;48.140;10.250;2024-03-02T12:59:59;2.50;;;2.30;;
8040;SDS011;4063;48.140;10.250;2024-03-02T13:02:29;2.95;;;2.50;;
8040;SDS011;4063;48.140;10.250;2024-03-02T13:04:55;4.95;;;1.92;;
8040;SDS011;4063;48.140;10.250;2024-03-02T13:07:22;2.17;;;1.98;;
8040;SDS011;4063;48.140;10.250;2024-03-02T13:09:52;2.72;;;2.10;;
8040;SDS011;4063;48.140;10.250;2024-03-02T13:12:20;2.00;;;1.88;;
8040;SDS011;4063;48.140;10.250;2024-03-02T13:14:52;2.20;;;2.00;;
8040;SDS011;4063;48.140;10.250;2024-03-02T13:17:19;1.88;;;1.75;;
8040;SDS011;4063;48.140;10.250;2024-03-02T13:22:18;4.18;;;2.45;;
8040;SDS011;4063;48.140;10.250;2024-03-02T13:24:44;2.90;;;2.60;;
8040;SDS011;4063;48.140;10.250;2024-03-02T13:27:10;4.15;;;3.00;;
8040;SDS011;4063;48.140;10.250;2024-03-02T13:29:36;4.13;;;3.50;;
8040;SDS011;4063;48.140;10.250;2024-03-02T13:32:02;3.58;;;3.28;;
8040;SDS011;4063;48.140;10.250;2024-03-02T13:34:28;4.75;;;3.22;;
8040;SDS011;4063;48.140;10.250;2024-03-02T13:36:54;7.30;;;3.40;;
8040;SDS011;4063;48.140;10.250;2024-03-02T13:39:20;3.22;;;2.92;;
8040;SDS011;4063;48.140;10.250;2024-03-02T13:41:46;2.88;;;2.67;;
8040;SDS011;4063;48.140;10.250;2024-03-02T13:44:20;2.83;;;2.50;;
8040;SDS011;4063;48.140;10.250;2024-03-02T13:46:46;2.42;;;2.22;;
8040;SDS011;4063;48.140;10.250;2024-03-02T13:49:14;2.20;;;2.00;;
8040;SDS011;4063;48.140;10.250;2024-03-02T13:51:40;2.22;;;1.85;;
8040;SDS011;4063;48.140;10.250;2024-03-02T13:54:06;1.70;;;1.60;;
8040;SDS011;4063;48.140;10.250;2024-03-02T13:56:32;1.90;;;1.80;;
8040;SDS011;4063;48.140;10.250;2024-03-02T13:58:58;1.80;;;1.60;;
8040;SDS011;4063;48.140;10.250;2024-03-02T14:01:24;1.80;;;1.70;;
8040;SDS011;4063;48.140;10.250;2024-03-02T14:03:50;2.08;;;1.80;;
8040;SDS011;4063;48.140;10.250;2024-03-02T14:06:19;3.42;;;1.80;;
8040;SDS011;4063;48.140;10.250;2024-03-02T14:08:45;1.70;;;1.60;;
8040;SDS011;4063;48.140;10.250;2024-03-02T14:11:11;1.73;;;1.63;;
8040;SDS011;4063;48.140;10.250;2024-03-02T14:13:40;3.38;;;2.15;;
8040;SDS011;4063;48.140;10.250;2024-03-02T14:16:06;2.47;;;1.80;;
8040;SDS011;4063;48.140;10.250;2024-03-02T14:18:32;1.90;;;1.80;;
8040;SDS011;4063;48.140;10.250;2024-03-02T14:20:58;3.80;;;1.85;;
8040;SDS011;4063;48.140;10.250;2024-03-02T14:23:24;2.45;;;1.80;;
8040;SDS011;4063;48.140;10.250;2024-03-02T14:25:51;2.10;;;1.90;;
8040;SDS011;4063;48.140;10.250;2024-03-02T14:28:17;4.20;;;2.92;;
8040;SDS011;4063;48.140;10.250;2024-03-02T14:30:44;3.45;;;3.15;;
8040;SDS011;4063;48.140;10.250;2024-03-02T14:33:10;3.25;;;2.85;;
8040;SDS011;4063;48.140;10.250;2024-03-02T14:35:39;3.40;;;3.10;;
8040;SDS011;4063;48.140;10.250;2024-03-02T14:38:05;3.65;;;3.08;;
8040;SDS011;4063;48.140;10.250;2024-03-02T14:40:31;4.40;;;2.85;;
8040;SDS011;4063;48.140;10.250;2024-03-02T14:42:57;2.97;;;2.67;;
8040;SDS011;4063;48.140;10.250;2024-03-02T14:45:23;3.63;;;3.08;;
8040;SDS011;4063;48.140;10.250;2024-03-02T14:47:49;12.48;;;9.40;;
8040;SDS011;4063;48.140;10.250;2024-03-02T14:50:15;11.27;;;9.63;;
8040;SDS011;4063;48.140;10.250;2024-03-02T14:52:41;13.60;;;10.40;;
8040;SDS011;4063;48.140;10.250;2024-03-02T14:55:07;7.90;;;6.68;;
8040;SDS011;4063;48.140;10.250;2024-03-02T14:57:33;5.20;;;4.70;;
8040;SDS011;4063;48.140;10.250;2024-03-02T14:59:59;5.68;;;4.95;;